sensor_id;sensor_type;location;lat;lon;timestamp;pressure;altitude;pressure_sealevel;temperature;humidity
44044;BME280;29709;52.396;16.796;2022-07-04T00:03:02;101695.50;;;20.50;60.05
44044;BME280;29709;52.396;16.796;2022-07-04T00:06:05;101685.19;;;20.50;60.00
44044;BME280;29709;52.396;16.796;2022-07-04T00:09:17;101690.77;;;20.50;60.09
44044;BME280;29709;52.396;16.796;2022-07-04T00:12:20;101690.56;;;20.52;60.03
44044;BME280;29709;52.396;16.796;2022-07-04T00:15:29;101695.29;;;20.51;60.62
44044;BME280;29709;52.396;16.796;2022-07-04T00:18:33;101684.34;;;20.50;61.15
44044;BME280;29709;52.396;16.796;2022-07-04T00:21:39;101690.98;;;20.49;60.65
44044;BME280;29709;52.396;16.796;2022-07-04T00:25:10;101695.52;;;20.43;60.61
44044;BME280;29709;52.396;16.796;2022-07-04T00:28:14;101701.95;;;20.43;60.67
44044;BME280;29709;52.396;16.796;2022-07-04T00:31:17;101703.89;;;20.43;61.41
44044;BME280;29709;52.396;16.796;2022-07-04T00:34:20;101700.88;;;20.44;60.95
44044;BME280;29709;52.396;16.796;2022-07-04T00:40:46;101694.44;;;20.44;61.22
44044;BME280;29709;52.396;16.796;2022-07-04T00:44:17;101691.59;;;20.37;61.74
44044;BME280;29709;52.396;16.796;2022-07-04T00:47:20;101689.01;;;20.36;61.91
44044;BME280;29709;52.396;16.796;2022-07-04T00:50:24;101684.04;;;20.31;61.20
44044;BME280;29709;52.396;16.796;2022-07-04T00:53:28;101679.96;;;20.27;62.12
44044;BME280;29709;52.396;16.796;2022-07-04T00:56:32;101673.09;;;20.23;62.41
44044;BME280;29709;52.396;16.796;2022-07-04T00:59:38;101649.84;;;20.09;62.48
44044;BME280;29709;52.396;16.796;2022-07-04T01:02:41;101664.48;;;20.11;62.69
44044;BME280;29709;52.396;16.796;2022-07-04T01:05:44;101664.23;;;20.06;61.53
44044;BME280;29709;52.396;16.796;2022-07-04T01:08:48;101649.16;;;20.01;62.42
44044;BME280;29709;52.396;16.796;2022-07-04T01:15:29;101649.13;;;19.87;62.46
44044;BME280;29709;52.396;16.796;2022-07-04T01:21:48;101647.81;;;19.77;63.22
44044;BME280;29709;52.396;16.796;2022-07-04T01:24:52;101654.71;;;19.81;63.36
44044;BME280;29709;52.396;16.796;2022-07-04T01:27:56;101653.42;;;19.83;62.42
44044;BME280;29709;52.396;16.796;2022-07-04T01:34:29;101650.60;;;19.77;63.53
44044;BME280;29709;52.396;16.796;2022-07-04T01:37:41;101646.95;;;19.76;63.75
44044;BME280;29709;52.396;16.796;2022-07-04T01:40:47;101649.31;;;19.73;64.13
44044;BME280;29709;52.396;16.796;2022-07-04T01:44:17;101651.45;;;19.71;63.97
44044;BME280;29709;52.396;16.796;2022-07-04T01:47:20;101647.13;;;19.68;63.32
44044;BME280;29709;52.396;16.796;2022-07-04T01:50:23;101637.04;;;19.67;63.95
44044;BME280;29709;52.396;16.796;2022-07-04T01:53:26;101643.46;;;19.61;63.07
44044;BME280;29709;52.396;16.796;2022-07-04T01:56:29;101644.54;;;19.60;64.05
44044;BME280;29709;52.396;16.796;2022-07-04T01:59:33;101646.18;;;19.54;64.76
44044;BME280;29709;52.396;16.796;2022-07-04T02:02:59;101639.52;;;19.49;65.01
44044;BME280;29709;52.396;16.796;2022-07-04T02:06:04;101629.83;;;19.45;65.05
44044;BME280;29709;52.396;16.796;2022-07-04T02:09:08;101639.69;;;19.41;65.43
44044;BME280;29709;52.396;16.796;2022-07-04T02:12:20;101643.93;;;19.37;64.75
44044;BME280;29709;52.396;16.796;2022-07-04T02:18:58;101635.34;;;19.31;65.27
44044;BME280;29709;52.396;16.796;2022-07-04T02:22:27;101631.85;;;19.23;65.80
44044;BME280;29709;52.396;16.796;2022-07-04T02:25:31;101634.20;;;19.19;66.13
44044;BME280;29709;52.396;16.796;2022-07-04T02:28:34;101639.55;;;19.21;66.04
44044;BME280;29709;52.396;16.796;2022-07-04T02:31:38;101643.44;;;19.26;65.92
44044;BME280;29709;52.396;16.796;2022-07-04T02:34:41;101638.34;;;19.30;66.03
44044;BME280;29709;52.396;16.796;2022-07-04T02:37:44;101635.08;;;19.26;65.72
44044;BME280;29709;52.396;16.796;2022-07-04T02:40:47;101631.43;;;19.26;65.15
44044;BME280;29709;52.396;16.796;2022-07-04T02:43:51;101625.84;;;19.19;65.44
44044;BME280;29709;52.396;16.796;2022-07-04T02:46:54;101629.87;;;19.17;64.83
44044;BME280;29709;52.396;16.796;2022-07-04T02:49:57;101623.42;;;19.10;66.57
44044;BME280;29709;52.396;16.796;2022-07-04T02:53:30;101633.05;;;19.07;66.66
44044;BME280;29709;52.396;16.796;2022-07-04T02:56:33;101630.51;;;19.12;66.77
44044;BME280;29709;52.396;16.796;2022-07-04T02:59:36;101630.55;;;19.19;65.92
44044;BME280;29709;52.396;16.796;2022-07-04T03:02:39;101629.87;;;19.17;65.03
44044;BME280;29709;52.396;16.796;2022-07-04T03:05:42;101634.59;;;19.16;66.64
44044;BME280;29709;52.396;16.796;2022-07-04T03:08:45;101629.87;;;19.17;66.22
44044;BME280;29709;52.396;16.796;2022-07-04T03:11:49;101635.87;;;19.14;65.92
44044;BME280;29709;52.396;16.796;2022-07-04T03:14:52;101641.88;;;19.17;65.71
44044;BME280;29709;52.396;16.796;2022-07-04T03:17:56;101644.07;;;19.22;65.25
44044;BME280;29709;52.396;16.796;2022-07-04T03:21:00;101644.67;;;19.17;65.92
44044;BME280;29709;52.396;16.796;2022-07-04T03:24:31;101641.02;;;19.17;66.07
44044;BME280;29709;52.396;16.796;2022-07-04T03:27:35;101635.87;;;19.14;66.35
44044;BME280;29709;52.396;16.796;2022-07-04T03:30:38;101630.73;;;19.17;66.31
44044;BME280;29709;52.396;16.796;2022-07-04T03:33:44;101634.85;;;19.21;65.65
44044;BME280;29709;52.396;16.796;2022-07-04T03:36:47;101634.22;;;19.26;66.61
44044;BME280;29709;52.396;16.796;2022-07-04T03:39:51;101639.63;;;19.34;65.98
44044;BME280;29709;52.396;16.796;2022-07-04T03:42:54;101642.85;;;19.38;66.66
44044;BME280;29709;52.396;16.796;2022-07-04T03:45:57;101641.41;;;19.42;66.49
44044;BME280;29709;52.396;16.796;2022-07-04T03:49:00;101633.27;;;19.47;65.72
44044;BME280;29709;52.396;16.796;2022-07-04T03:52:32;101644.46;;;19.53;65.93
44044;BME280;29709;52.396;16.796;2022-07-04T03:55:35;101618.77;;;19.58;65.85
44044;BME280;29709;52.396;16.796;2022-07-04T03:58:38;101629.10;;;19.64;66.37
44044;BME280;29709;52.396;16.796;2022-07-04T04:01:42;101633.43;;;19.73;66.19
44044;BME280;29709;52.396;16.796;2022-07-04T04:04:45;101623.39;;;19.85;65.40
44044;BME280;29709;52.396;16.796;2022-07-04T04:08:01;101612.47;;;19.91;65.30
44044;BME280;29709;52.396;16.796;2022-07-04T04:11:08;101621.48;;;19.99;65.39
44044;BME280;29709;52.396;16.796;2022-07-04T04:14:49;101631.38;;;20.08;65.36
44044;BME280;29709;52.396;16.796;2022-07-04T04:17:53;101627.11;;;20.19;65.60
44044;BME280;29709;52.396;16.796;2022-07-04T04:20:56;101629.73;;;20.40;64.92
44044;BME280;29709;52.396;16.796;2022-07-04T04:23:59;101631.52;;;20.55;64.66
44044;BME280;29709;52.396;16.796;2022-07-04T04:27:03;101633.66;;;20.66;63.83
44044;BME280;29709;52.396;16.796;2022-07-04T04:30:07;101629.56;;;20.82;64.19
44044;BME280;29709;52.396;16.796;2022-07-04T04:33:14;101618.35;;;21.01;63.50
44044;BME280;29709;52.396;16.796;2022-07-04T04:36:25;101614.25;;;21.11;62.94
44044;BME280;29709;52.396;16.796;2022-07-04T04:39:56;101618.99;;;21.17;63.04
44044;BME280;29709;52.396;16.796;2022-07-04T04:46:34;101611.20;;;21.25;62.67
44044;BME280;29709;52.396;16.796;2022-07-04T04:49:38;101607.13;;;21.35;62.36
44044;BME280;29709;52.396;16.796;2022-07-04T04:52:41;101611.62;;;21.42;61.69
44044;BME280;29709;52.396;16.796;2022-07-04T04:56:10;101610.76;;;21.48;62.29
44044;BME280;29709;52.396;16.796;2022-07-04T04:59:20;101597.34;;;21.64;61.28
44044;BME280;29709;52.396;16.796;2022-07-04T05:02:27;101606.73;;;21.82;61.50
44044;BME280;29709;52.396;16.796;2022-07-04T05:05:30;101610.48;;;22.08;61.08
44044;BME280;29709;52.396;16.796;2022-07-04T05:08:34;101613.37;;;22.26;60.26
44044;BME280;29709;52.396;16.796;2022-07-04T05:11:37;101619.12;;;22.38;59.67
44044;BME280;29709;52.396;16.796;2022-07-04T05:14:41;101621.83;;;22.51;59.59
44044;BME280;29709;52.396;16.796;2022-07-04T05:17:44;101624.34;;;22.59;59.05
44044;BME280;29709;52.396;16.796;2022-07-04T05:21:14;101631.64;;;22.60;59.11
44044;BME280;29709;52.396;16.796;2022-07-04T05:24:23;101624.29;;;22.66;59.34
44044;BME280;29709;52.396;16.796;2022-07-04T05:27:27;101640.59;;;22.75;58.77
44044;BME280;29709;52.396;16.796;2022-07-04T05:30:30;101633.19;;;22.81;58.49
44044;BME280;29709;52.396;16.796;2022-07-04T05:33:34;101635.08;;;22.94;58.46
44044;BME280;29709;52.396;16.796;2022-07-04T05:36:37;101654.56;;;23.07;58.35
44044;BME280;29709;52.396;16.796;2022-07-04T05:39:41;101671.77;;;23.11;57.97
44044;BME280;29709;52.396;16.796;2022-07-04T05:42:46;101663.37;;;23.11;58.14
44044;BME280;29709;52.396;16.796;2022-07-04T05:45:50;101659.78;;;23.03;58.23
44044;BME280;29709;52.396;16.796;2022-07-04T05:49:18;101681.79;;;23.00;58.54
44044;BME280;29709;52.396;16.796;2022-07-04T05:55:35;101677.64;;;22.84;59.13
44044;BME280;29709;52.396;16.796;2022-07-04T05:58:39;101694.37;;;22.91;59.53
44044;BME280;29709;52.396;16.796;2022-07-04T06:01:44;101692.62;;;22.96;59.89
44044;BME280;29709;52.396;16.796;2022-07-04T06:04:48;101693.64;;;23.02;59.62
44044;BME280;29709;52.396;16.796;2022-07-04T06:07:51;101693.97;;;23.12;59.53
44044;BME280;29709;52.396;16.796;2022-07-04T06:10:55;101699.73;;;23.42;58.88
44044;BME280;29709;52.396;16.796;2022-07-04T06:14:24;101696.68;;;23.69;58.47
44044;BME280;29709;52.396;16.796;2022-07-04T06:17:28;101693.83;;;24.05;57.28
44044;BME280;29709;52.396;16.796;2022-07-04T06:20:36;101705.41;;;24.45;56.48
44044;BME280;29709;52.396;16.796;2022-07-04T06:23:42;101713.35;;;24.90;55.47
44044;BME280;29709;52.396;16.796;2022-07-04T06:26:46;101704.39;;;25.12;54.67
44044;BME280;29709;52.396;16.796;2022-07-04T06:29:49;101703.55;;;25.46;52.78
44044;BME280;29709;52.396;16.796;2022-07-04T06:32:54;101698.98;;;25.69;52.23
44044;BME280;29709;52.396;16.796;2022-07-04T06:35:59;101703.78;;;25.80;51.92
44044;BME280;29709;52.396;16.796;2022-07-04T06:39:27;101702.22;;;26.12;50.61
44044;BME280;29709;52.396;16.796;2022-07-04T06:45:57;101686.34;;;26.06;51.02
44044;BME280;29709;52.396;16.796;2022-07-04T06:49:01;101694.14;;;26.16;50.97
44044;BME280;29709;52.396;16.796;2022-07-04T06:55:48;101681.99;;;26.72;47.89
44044;BME280;29709;52.396;16.796;2022-07-04T06:59:03;101678.29;;;26.55;49.16
44044;BME280;29709;52.396;16.796;2022-07-04T07:02:08;101672.09;;;26.13;48.66
44044;BME280;29709;52.396;16.796;2022-07-04T07:05:11;101682.70;;;25.82;49.13
44044;BME280;29709;52.396;16.796;2022-07-04T07:08:15;101676.47;;;26.21;49.51
44044;BME280;29709;52.396;16.796;2022-07-04T07:11:18;101668.52;;;26.17;49.11
44044;BME280;29709;52.396;16.796;2022-07-04T07:14:23;101664.65;;;26.07;48.78
44044;BME280;29709;52.396;16.796;2022-07-04T07:17:26;101678.14;;;25.93;49.22
44044;BME280;29709;52.396;16.796;2022-07-04T07:20:55;101679.03;;;25.82;49.92
44044;BME280;29709;52.396;16.796;2022-07-04T07:23:58;101684.02;;;25.92;48.95
44044;BME280;29709;52.396;16.796;2022-07-04T07:27:04;101680.77;;;25.71;49.41
44044;BME280;29709;52.396;16.796;2022-07-04T07:30:08;101677.95;;;25.48;49.48
44044;BME280;29709;52.396;16.796;2022-07-04T07:33:12;101673.55;;;25.40;49.83
44044;BME280;29709;52.396;16.796;2022-07-04T07:36:17;101670.01;;;25.56;50.57
44044;BME280;29709;52.396;16.796;2022-07-04T07:39:20;101674.47;;;25.93;49.82
44044;BME280;29709;52.396;16.796;2022-07-04T07:42:24;101686.68;;;26.10;48.84
44044;BME280;29709;52.396;16.796;2022-07-04T07:45:28;101690.64;;;25.97;48.29
44044;BME280;29709;52.396;16.796;2022-07-04T07:48:56;101686.34;;;26.06;47.86
44044;BME280;29709;52.396;16.796;2022-07-04T07:52:00;101671.34;;;25.77;47.53
44044;BME280;29709;52.396;16.796;2022-07-04T07:55:05;101693.86;;;25.66;48.58
44044;BME280;29709;52.396;16.796;2022-07-04T07:58:11;101686.90;;;25.56;48.96
44044;BME280;29709;52.396;16.796;2022-07-04T08:01:14;101701.94;;;25.50;49.89
44044;BME280;29709;52.396;16.796;2022-07-04T08:04:17;101703.91;;;25.38;50.09
44044;BME280;29709;52.396;16.796;2022-07-04T08:07:33;101710.64;;;25.14;49.46
44044;BME280;29709;52.396;16.796;2022-07-04T08:10:38;101702.23;;;24.84;50.60
44044;BME280;29709;52.396;16.796;2022-07-04T08:14:07;101714.55;;;24.71;51.07
44044;BME280;29709;52.396;16.796;2022-07-04T08:17:12;101711.10;;;24.69;50.81
44044;BME280;29709;52.396;16.796;2022-07-04T08:20:15;101701.84;;;24.80;51.75
44044;BME280;29709;52.396;16.796;2022-07-04T08:23:19;101701.70;;;25.17;50.63
44044;BME280;29709;52.396;16.796;2022-07-04T08:26:22;101709.92;;;25.53;50.04
44044;BME280;29709;52.396;16.796;2022-07-04T08:29:34;101717.76;;;25.75;49.75
44044;BME280;29709;52.396;16.796;2022-07-04T08:36:15;101724.11;;;25.70;48.63
44044;BME280;29709;52.396;16.796;2022-07-04T08:39:18;101712.80;;;25.94;48.49
44044;BME280;29709;52.396;16.796;2022-07-04T08:42:22;101714.51;;;26.06;48.34
44044;BME280;29709;52.396;16.796;2022-07-04T08:45:33;101717.02;;;26.19;47.55
44044;BME280;29709;52.396;16.796;2022-07-04T08:48:38;101713.16;;;26.49;47.60
44044;BME280;29709;52.396;16.796;2022-07-04T08:51:54;101707.52;;;26.49;46.73
44044;BME280;29709;52.396;16.796;2022-07-04T08:54:58;101704.26;;;26.57;47.56
44044;BME280;29709;52.396;16.796;2022-07-04T08:58:15;101720.22;;;26.80;46.72
44044;BME280;29709;52.396;16.796;2022-07-04T09:01:30;101725.01;;;26.96;46.31
44044;BME280;29709;52.396;16.796;2022-07-04T09:05:00;101729.46;;;26.92;46.62
44044;BME280;29709;52.396;16.796;2022-07-04T09:08:04;101729.92;;;27.18;46.31
44044;BME280;29709;52.396;16.796;2022-07-04T09:11:08;101738.21;;;27.08;45.62
44044;BME280;29709;52.396;16.796;2022-07-04T09:17:26;101746.00;;;27.17;45.49
44044;BME280;29709;52.396;16.796;2022-07-04T09:20:31;101744.44;;;27.60;46.05
44044;BME280;29709;52.396;16.796;2022-07-04T09:23:40;101746.47;;;27.81;44.39
44044;BME280;29709;52.396;16.796;2022-07-04T09:26:46;101742.18;;;28.17;44.14
44044;BME280;29709;52.396;16.796;2022-07-04T09:29:53;101755.86;;;28.04;43.60
44044;BME280;29709;52.396;16.796;2022-07-04T09:32:57;101752.21;;;27.86;43.37
44044;BME280;29709;52.396;16.796;2022-07-04T09:36:13;101751.95;;;27.88;43.22
44044;BME280;29709;52.396;16.796;2022-07-04T09:39:20;101748.30;;;27.71;44.65
44044;BME280;29709;52.396;16.796;2022-07-04T09:42:49;101754.31;;;28.35;43.80
44044;BME280;29709;52.396;16.796;2022-07-04T09:45:57;101753.39;;;28.78;43.39
44044;BME280;29709;52.396;16.796;2022-07-04T09:49:01;101754.38;;;28.89;42.87
44044;BME280;29709;52.396;16.796;2022-07-04T09:52:06;101750.52;;;29.00;42.58
44044;BME280;29709;52.396;16.796;2022-07-04T09:55:14;101761.79;;;29.27;41.71
44044;BME280;29709;52.396;16.796;2022-07-04T09:58:23;101751.28;;;29.54;40.44
44044;BME280;29709;52.396;16.796;2022-07-04T10:01:26;101761.91;;;29.74;40.55
44044;BME280;29709;52.396;16.796;2022-07-04T10:04:56;101757.83;;;29.28;40.60
44044;BME280;29709;52.396;16.796;2022-07-04T10:11:32;101765.06;;;29.46;40.51
44044;BME280;29709;52.396;16.796;2022-07-04T10:14:34;101765.55;;;29.38;40.69
44044;BME280;29709;52.396;16.796;2022-07-04T10:20:55;101757.04;;;29.32;41.01
44044;BME280;29709;52.396;16.796;2022-07-04T10:24:24;101759.86;;;29.32;40.72
44044;BME280;29709;52.396;16.796;2022-07-04T10:27:28;101764.77;;;29.10;41.26
44044;BME280;29709;52.396;16.796;2022-07-04T10:30:38;101757.16;;;29.16;41.26
44044;BME280;29709;52.396;16.796;2022-07-04T10:33:43;101761.20;;;29.57;41.03
44044;BME280;29709;52.396;16.796;2022-07-04T10:36:52;101755.74;;;29.87;40.28
44044;BME280;29709;52.396;16.796;2022-07-04T10:39:56;101747.23;;;29.82;39.19
44044;BME280;29709;52.396;16.796;2022-07-04T10:42:59;101743.66;;;30.02;40.19
44044;BME280;29709;52.396;16.796;2022-07-04T10:46:31;101761.05;;;30.21;38.76
44044;BME280;29709;52.396;16.796;2022-07-04T10:49:39;101745.57;;;30.44;39.76
44044;BME280;29709;52.396;16.796;2022-07-04T11:02:41;101751.09;;;30.91;39.41
44044;BME280;29709;52.396;16.796;2022-07-04T11:05:45;101751.10;;;31.01;38.00
44044;BME280;29709;52.396;16.796;2022-07-04T11:09:14;101747.42;;;31.11;37.81
44044;BME280;29709;52.396;16.796;2022-07-04T11:12:24;101735.47;;;30.94;37.34
44044;BME280;29709;52.396;16.796;2022-07-04T11:18:47;101730.05;;;30.72;38.03
44044;BME280;29709;52.396;16.796;2022-07-04T11:21:54;101725.25;;;30.93;38.57
44044;BME280;29709;52.396;16.796;2022-07-04T11:25:02;101724.70;;;31.11;37.90
44044;BME280;29709;52.396;16.796;2022-07-04T11:28:18;101727.86;;;31.20;37.70
44044;BME280;29709;52.396;16.796;2022-07-04T11:34:37;101727.00;;;31.40;37.36
44044;BME280;29709;52.396;16.796;2022-07-04T11:38:05;101738.09;;;31.21;36.46
44044;BME280;29709;52.396;16.796;2022-07-04T11:44:39;101730.94;;;30.88;36.47
44044;BME280;29709;52.396;16.796;2022-07-04T11:47:54;101724.97;;;31.04;37.29
44044;BME280;29709;52.396;16.796;2022-07-04T11:51:26;101720.74;;;31.33;37.51
44044;BME280;29709;52.396;16.796;2022-07-04T11:54:30;101727.84;;;31.25;37.72
44044;BME280;29709;52.396;16.796;2022-07-04T12:03:40;101718.42;;;30.84;37.32
44044;BME280;29709;52.396;16.796;2022-07-04T12:06:45;101719.60;;;31.08;37.80
44044;BME280;29709;52.396;16.796;2022-07-04T12:09:49;101711.08;;;30.98;37.52
44044;BME280;29709;52.396;16.796;2022-07-04T12:16:16;101706.81;;;30.90;37.91
44044;BME280;29709;52.396;16.796;2022-07-04T12:19:16;101710.52;;;31.06;37.63
44044;BME280;29709;52.396;16.796;2022-07-04T12:26:05;101702.87;;;31.37;37.28
44044;BME280;29709;52.396;16.796;2022-07-04T12:35:52;101705.31;;;30.62;38.26
44044;BME280;29709;52.396;16.796;2022-07-04T12:38:57;101705.03;;;30.54;38.11
44044;BME280;29709;52.396;16.796;2022-07-04T12:42:34;101698.78;;;30.57;37.06
44044;BME280;29709;52.396;16.796;2022-07-04T12:45:44;101705.79;;;30.29;37.82
44044;BME280;29709;52.396;16.796;2022-07-04T12:48:49;101710.33;;;30.25;37.60
44044;BME280;29709;52.396;16.796;2022-07-04T12:55:07;101701.72;;;30.97;37.56
44044;BME280;29709;52.396;16.796;2022-07-04T12:58:14;101703.44;;;31.29;37.11
44044;BME280;29709;52.396;16.796;2022-07-04T13:01:43;101705.42;;;31.23;35.97
44044;BME280;29709;52.396;16.796;2022-07-04T13:04:47;101707.39;;;31.08;36.61
44044;BME280;29709;52.396;16.796;2022-07-04T13:07:50;101703.12;;;31.36;37.03
44044;BME280;29709;52.396;16.796;2022-07-04T13:10:55;101701.41;;;31.45;36.53
44044;BME280;29709;52.396;16.796;2022-07-04T13:14:12;101703.96;;;31.46;36.72
44044;BME280;29709;52.396;16.796;2022-07-04T13:17:21;101711.63;;;31.61;35.94
44044;BME280;29709;52.396;16.796;2022-07-04T13:20:24;101707.62;;;31.72;36.42
44044;BME280;29709;52.396;16.796;2022-07-04T13:23:53;101711.05;;;31.54;35.90
44044;BME280;29709;52.396;16.796;2022-07-04T13:26:56;101711.65;;;31.51;35.98
44044;BME280;29709;52.396;16.796;2022-07-04T13:29:59;101706.52;;;31.53;36.06
44044;BME280;29709;52.396;16.796;2022-07-04T13:33:09;101709.10;;;31.19;36.13
44044;BME280;29709;52.396;16.796;2022-07-04T13:36:12;101709.91;;;30.84;36.35
44044;BME280;29709;52.396;16.796;2022-07-04T13:39:17;101706.80;;;30.80;36.87
44044;BME280;29709;52.396;16.796;2022-07-04T13:42:23;101710.52;;;30.96;36.62
44044;BME280;29709;52.396;16.796;2022-07-04T13:45:39;101718.45;;;31.14;36.60
44044;BME280;29709;52.396;16.796;2022-07-04T13:48:47;101713.62;;;30.89;37.05
44044;BME280;29709;52.396;16.796;2022-07-04T13:51:53;101709.86;;;30.58;37.64
44044;BME280;29709;52.396;16.796;2022-07-04T13:55:21;101726.02;;;30.58;37.69
44044;BME280;29709;52.396;16.796;2022-07-04T13:58:25;101719.77;;;30.56;37.25
44044;BME280;29709;52.396;16.796;2022-07-04T14:01:28;101719.01;;;30.81;37.40
44044;BME280;29709;52.396;16.796;2022-07-04T14:04:31;101717.00;;;30.66;37.24
44044;BME280;29709;52.396;16.796;2022-07-04T14:07:36;101720.44;;;30.88;37.10
44044;BME280;29709;52.396;16.796;2022-07-04T14:10:39;101723.84;;;30.85;36.91
44044;BME280;29709;52.396;16.796;2022-07-04T14:13:44;101728.10;;;30.88;36.84
44044;BME280;29709;52.396;16.796;2022-07-04T14:16:47;101719.77;;;30.56;37.67
44044;BME280;29709;52.396;16.796;2022-07-04T14:19:51;101712.96;;;30.62;37.81
44044;BME280;29709;52.396;16.796;2022-07-04T14:22:54;101715.30;;;30.70;37.38
44044;BME280;29709;52.396;16.796;2022-07-04T14:26:23;101723.15;;;30.53;36.89
44044;BME280;29709;52.396;16.796;2022-07-04T14:29:27;101719.21;;;30.59;37.01
44044;BME280;29709;52.396;16.796;2022-07-04T14:32:31;101715.32;;;30.75;36.59
44044;BME280;29709;52.396;16.796;2022-07-04T14:35:35;101700.85;;;30.77;36.62
44044;BME280;29709;52.396;16.796;2022-07-04T14:38:39;101708.79;;;30.74;36.54
44044;BME280;29709;52.396;16.796;2022-07-04T14:41:42;101717.57;;;30.68;35.79
44044;BME280;29709;52.396;16.796;2022-07-04T14:44:45;101701.88;;;30.50;35.98
44044;BME280;29709;52.396;16.796;2022-07-04T14:47:49;101699.30;;;30.33;36.77
44044;BME280;29709;52.396;16.796;2022-07-04T14:50:52;101698.42;;;30.23;36.75
44044;BME280;29709;52.396;16.796;2022-07-04T14:54:22;101702.11;;;30.23;37.10
44044;BME280;29709;52.396;16.796;2022-07-04T14:57:26;101691.05;;;30.32;36.97
44044;BME280;29709;52.396;16.796;2022-07-04T15:00:30;101695.35;;;30.44;36.79
44044;BME280;29709;52.396;16.796;2022-07-04T15:03:34;101684.88;;;30.55;36.34
44044;BME280;29709;52.396;16.796;2022-07-04T15:06:37;101682.88;;;30.51;35.49
44044;BME280;29709;52.396;16.796;2022-07-04T15:09:41;101684.30;;;30.48;36.46
44044;BME280;29709;52.396;16.796;2022-07-04T15:12:46;101686.02;;;30.59;36.28
44044;BME280;29709;52.396;16.796;2022-07-04T15:15:49;101680.91;;;30.56;35.97
44044;BME280;29709;52.396;16.796;2022-07-04T15:18:54;101684.58;;;30.52;35.39
44044;BME280;29709;52.396;16.796;2022-07-04T15:22:25;101682.05;;;30.55;35.19
44044;BME280;29709;52.396;16.796;2022-07-04T15:25:40;101685.15;;;30.49;35.35
44044;BME280;29709;52.396;16.796;2022-07-04T15:28:43;101680.06;;;30.56;34.88
44044;BME280;29709;52.396;16.796;2022-07-04T15:31:46;101675.49;;;30.50;35.68
44044;BME280;29709;52.396;16.796;2022-07-04T15:34:51;101672.09;;;30.48;35.49
44044;BME280;29709;52.396;16.796;2022-07-04T15:37:54;101679.73;;;30.42;35.88
44044;BME280;29709;52.396;16.796;2022-07-04T15:40:57;101678.25;;;30.14;36.59
44044;BME280;29709;52.396;16.796;2022-07-04T15:44:04;101676.59;;;30.23;36.52
44044;BME280;29709;52.396;16.796;2022-07-04T15:47:33;101675.77;;;30.33;36.55
44044;BME280;29709;52.396;16.796;2022-07-04T15:50:38;101681.72;;;30.36;36.29
44044;BME280;29709;52.396;16.796;2022-07-04T15:53:41;101673.00;;;29.90;36.31
44044;BME280;29709;52.396;16.796;2022-07-04T15:56:44;101672.14;;;29.85;36.41
44044;BME280;29709;52.396;16.796;2022-07-04T15:59:47;101677.77;;;29.80;36.46
44044;BME280;29709;52.396;16.796;2022-07-04T16:02:51;101674.36;;;29.78;36.09
44044;BME280;29709;52.396;16.796;2022-07-04T16:05:54;101678.84;;;29.69;36.53
44044;BME280;29709;52.396;16.796;2022-07-04T16:08:58;101678.59;;;29.70;35.94
44044;BME280;29709;52.396;16.796;2022-07-04T16:12:02;101677.70;;;29.65;36.24
44044;BME280;29709;52.396;16.796;2022-07-04T16:15:05;101678.89;;;29.74;36.47
44044;BME280;29709;52.396;16.796;2022-07-04T16:18:34;101682.34;;;29.81;36.62
44044;BME280;29709;52.396;16.796;2022-07-04T16:21:38;101682.23;;;29.66;36.13
44044;BME280;29709;52.396;16.796;2022-07-04T16:24:42;101684.20;;;29.60;35.75
44044;BME280;29709;52.396;16.796;2022-07-04T16:27:45;101680.81;;;29.63;36.31
44044;BME280;29709;52.396;16.796;2022-07-04T16:30:48;101681.37;;;29.60;36.75
44044;BME280;29709;52.396;16.796;2022-07-04T16:33:51;101684.04;;;29.40;36.57
44044;BME280;29709;52.396;16.796;2022-07-04T16:36:54;101677.67;;;29.22;37.03
44044;BME280;29709;52.396;16.796;2022-07-04T16:40:05;101681.08;;;29.24;37.24
44044;BME280;29709;52.396;16.796;2022-07-04T16:43:37;101682.13;;;29.13;36.95
44044;BME280;29709;52.396;16.796;2022-07-04T16:46:40;101679.67;;;28.90;36.72
44044;BME280;29709;52.396;16.796;2022-07-04T16:49:43;101669.39;;;28.84;36.92
44044;BME280;29709;52.396;16.796;2022-07-04T16:52:48;101673.07;;;28.84;37.41
44044;BME280;29709;52.396;16.796;2022-07-04T16:55:51;101667.42;;;28.84;37.44
44044;BME280;29709;52.396;16.796;2022-07-04T16:58:54;101667.97;;;28.81;37.81
44044;BME280;29709;52.396;16.796;2022-07-04T17:01:57;101674.17;;;28.78;37.74
44044;BME280;29709;52.396;16.796;2022-07-04T17:05:01;101680.62;;;28.73;37.32
44044;BME280;29709;52.396;16.796;2022-07-04T17:08:05;101671.55;;;28.71;37.24
44044;BME280;29709;52.396;16.796;2022-07-04T17:11:08;101674.55;;;28.60;38.08
44044;BME280;29709;52.396;16.796;2022-07-04T17:14:39;101674.25;;;28.56;37.72
44044;BME280;29709;52.396;16.796;2022-07-04T17:17:43;101680.99;;;28.55;38.60
44044;BME280;29709;52.396;16.796;2022-07-04T17:20:46;101677.30;;;28.55;37.73
44044;BME280;29709;52.396;16.796;2022-07-04T17:23:49;101682.39;;;28.53;38.30
44044;BME280;29709;52.396;16.796;2022-07-04T17:26:52;101685.38;;;28.41;37.62
44044;BME280;29709;52.396;16.796;2022-07-04T17:29:58;101694.05;;;28.34;38.40
44044;BME280;29709;52.396;16.796;2022-07-04T17:33:02;101694.79;;;28.25;38.26
44044;BME280;29709;52.396;16.796;2022-07-04T17:36:05;101697.81;;;28.18;37.88
44044;BME280;29709;52.396;16.796;2022-07-04T17:39:08;101698.93;;;28.17;37.69